sensor_id;sensor_type;location;lat;lon;timestamp;pressure;altitude;pressure_sealevel;temperature;humidity
50696;BME280;36665;51.786;21.594;2023-02-13T00:06:12;92459.08;;;1.30;77.20
50696;BME280;36665;51.786;21.594;2023-02-13T00:14:36;92483.98;;;1.36;77.19
50696;BME280;36665;51.786;21.594;2023-02-13T00:23:01;92486.05;;;1.36;77.35
50696;BME280;36665;51.786;21.594;2023-02-13T00:31:24;92509.65;;;1.43;77.32
50696;BME280;36665;51.786;21.594;2023-02-13T00:39:47;92547.65;;;1.54;77.33
50696;BME280;36665;51.786;21.594;2023-02-13T00:48:13;92577.92;;;1.62;77.70
50696;BME280;36665;51.786;21.594;2023-02-13T00:56:37;92584.61;;;1.62;77.40
50696;BME280;36665;51.786;21.594;2023-02-13T01:05:01;92590.24;;;1.63;77.61
50696;BME280;36665;51.786;21.594;2023-02-13T01:13:25;92606.39;;;1.68;77.63
50696;BME280;36665;51.786;21.594;2023-02-13T01:21:50;92629.95;;;1.73;77.86
50696;BME280;36665;51.786;21.594;2023-02-13T01:30:17;92631.67;;;1.74;77.90
50696;BME280;36665;51.786;21.594;2023-02-13T01:38:40;92621.48;;;1.71;77.85
50696;BME280;36665;51.786;21.594;2023-02-13T01:47:03;92634.15;;;1.74;78.03
50696;BME280;36665;51.786;21.594;2023-02-13T01:55:29;92672.31;;;1.84;78.09
50696;BME280;36665;51.786;21.594;2023-02-13T02:04:02;92691.54;;;1.88;77.89
50696;BME280;36665;51.786;21.594;2023-02-13T02:12:38;92687.33;;;1.87;77.87
50696;BME280;36665;51.786;21.594;2023-02-13T02:21:14;92711.00;;;1.93;78.08
50696;BME280;36665;51.786;21.594;2023-02-13T02:30:12;92747.34;;;2.03;78.33
50696;BME280;36665;51.786;21.594;2023-02-13T02:56:20;92742.56;;;2.02;78.31
50696;BME280;36665;51.786;21.594;2023-02-13T03:04:50;92779.87;;;2.12;78.44
50696;BME280;36665;51.786;21.594;2023-02-13T03:13:39;92814.92;;;2.21;78.57
50696;BME280;36665;51.786;21.594;2023-02-13T03:22:22;92827.33;;;2.23;78.45
50696;BME280;36665;51.786;21.594;2023-02-13T03:39:48;92860.16;;;2.32;78.70
50696;BME280;36665;51.786;21.594;2023-02-13T03:48:20;92882.15;;;2.38;78.48
50696;BME280;36665;51.786;21.594;2023-02-13T03:57:03;92883.38;;;2.38;78.50
50696;BME280;36665;51.786;21.594;2023-02-13T04:05:53;92902.04;;;2.42;78.67
50696;BME280;36665;51.786;21.594;2023-02-13T04:22:55;92925.34;;;2.49;78.67
50696;BME280;36665;51.786;21.594;2023-02-13T04:31:18;92937.94;;;2.52;78.74
50696;BME280;36665;51.786;21.594;2023-02-13T04:39:41;92971.02;;;2.58;78.88
50696;BME280;36665;51.786;21.594;2023-02-13T04:48:04;92991.30;;;2.65;78.89
50696;BME280;36665;51.786;21.594;2023-02-13T04:56:27;92982.54;;;2.63;79.01
50696;BME280;36665;51.786;21.594;2023-02-13T05:04:50;92995.59;;;2.66;79.06
50696;BME280;36665;51.786;21.594;2023-02-13T05:13:13;93026.27;;;2.73;79.28
50696;BME280;36665;51.786;21.594;2023-02-13T05:21:38;93036.89;;;2.76;79.27
50696;BME280;36665;51.786;21.594;2023-02-13T05:30:20;93021.84;;;2.71;79.29
50696;BME280;36665;51.786;21.594;2023-02-13T05:38:45;93031.19;;;2.73;79.41
50696;BME280;36665;51.786;21.594;2023-02-13T05:47:10;93050.90;;;2.80;79.30
50696;BME280;36665;51.786;21.594;2023-02-13T05:55:37;93056.64;;;2.81;79.46
50696;BME280;36665;51.786;21.594;2023-02-13T06:04:02;93053.70;;;2.80;79.53
50696;BME280;36665;51.786;21.594;2023-02-13T06:12:26;93057.83;;;2.81;79.25
50696;BME280;36665;51.786;21.594;2023-02-13T06:20:49;93066.70;;;2.83;79.35
50696;BME280;36665;51.786;21.594;2023-02-13T06:29:13;93061.58;;;2.81;79.54
50696;BME280;36665;51.786;21.594;2023-02-13T06:37:41;93064.09;;;2.81;79.44
50696;BME280;36665;51.786;21.594;2023-02-13T06:46:08;93077.66;;;2.85;79.58
50696;BME280;36665;51.786;21.594;2023-02-13T06:54:34;93107.52;;;2.93;79.32
50696;BME280;36665;51.786;21.594;2023-02-13T07:03:09;93125.84;;;2.97;79.70
50696;BME280;36665;51.786;21.594;2023-02-13T07:11:34;93143.56;;;3.01;79.59
50696;BME280;36665;51.786;21.594;2023-02-13T07:19:57;93169.73;;;3.08;79.61
50696;BME280;36665;51.786;21.594;2023-02-13T07:28:20;93201.34;;;3.17;79.71
50696;BME280;36665;51.786;21.594;2023-02-13T07:36:43;93224.23;;;3.22;79.81
50696;BME280;36665;51.786;21.594;2023-02-13T07:45:06;93275.27;;;3.36;79.78
50696;BME280;36665;51.786;21.594;2023-02-13T07:53:31;93413.61;;;3.73;80.05
50696;BME280;36665;51.786;21.594;2023-02-13T08:01:55;93584.85;;;4.18;80.07
50696;BME280;36665;51.786;21.594;2023-02-13T08:10:19;93733.23;;;4.57;80.23
50696;BME280;36665;51.786;21.594;2023-02-13T08:19:01;93774.70;;;4.68;80.28
50696;BME280;36665;51.786;21.594;2023-02-13T08:27:24;93760.41;;;4.64;80.28
50696;BME280;36665;51.786;21.594;2023-02-13T08:35:47;93856.48;;;4.88;80.26
50696;BME280;36665;51.786;21.594;2023-02-13T08:44:10;93987.35;;;5.22;80.50
50696;BME280;36665;51.786;21.594;2023-02-13T08:52:33;94150.02;;;5.63;80.64
50696;BME280;36665;51.786;21.594;2023-02-13T09:00:56;94188.34;;;5.74;80.59
50696;BME280;36665;51.786;21.594;2023-02-13T09:09:20;94178.61;;;5.71;80.45
50696;BME280;36665;51.786;21.594;2023-02-13T09:17:43;94058.23;;;5.40;80.40
50696;BME280;36665;51.786;21.594;2023-02-13T09:26:10;93961.58;;;5.15;80.25
50696;BME280;36665;51.786;21.594;2023-02-13T09:34:33;93953.85;;;5.13;80.03
50696;BME280;36665;51.786;21.594;2023-02-13T09:43:06;94027.61;;;5.32;80.28
50696;BME280;36665;51.786;21.594;2023-02-13T09:51:29;94156.58;;;5.65;80.23
50696;BME280;36665;51.786;21.594;2023-02-13T09:59:57;94211.27;;;5.80;80.05
50696;BME280;36665;51.786;21.594;2023-02-13T10:17:35;94231.11;;;5.86;79.97
50696;BME280;36665;51.786;21.594;2023-02-13T10:26:07;94161.95;;;5.66;80.12
50696;BME280;36665;51.786;21.594;2023-02-13T10:34:40;94164.42;;;5.67;79.81
50696;BME280;36665;51.786;21.594;2023-02-13T10:43:08;94189.48;;;5.75;79.76
50696;BME280;36665;51.786;21.594;2023-02-13T10:51:38;94178.92;;;5.72;79.83
50696;BME280;36665;51.786;21.594;2023-02-13T11:00:16;94113.47;;;5.54;79.72
50696;BME280;36665;51.786;21.594;2023-02-13T11:08:43;94053.44;;;5.40;79.63
50696;BME280;36665;51.786;21.594;2023-02-13T11:17:16;93998.88;;;5.25;79.53
50696;BME280;36665;51.786;21.594;2023-02-13T11:25:40;93955.22;;;5.14;79.47
50696;BME280;36665;51.786;21.594;2023-02-13T11:34:26;93929.33;;;5.07;79.50
50696;BME280;36665;51.786;21.594;2023-02-13T11:42:50;93899.91;;;5.00;79.32
50696;BME280;36665;51.786;21.594;2023-02-13T11:51:14;93984.83;;;5.22;79.30
50696;BME280;36665;51.786;21.594;2023-02-13T11:59:42;94036.98;;;5.35;79.26
50696;BME280;36665;51.786;21.594;2023-02-13T12:08:09;94021.81;;;5.32;79.13
50696;BME280;36665;51.786;21.594;2023-02-13T12:17:07;94021.23;;;5.32;79.03
50696;BME280;36665;51.786;21.594;2023-02-13T12:52:24;93958.34;;;5.16;78.93
50696;BME280;36665;51.786;21.594;2023-02-13T13:09:51;93905.77;;;5.01;79.08
50696;BME280;36665;51.786;21.594;2023-02-13T13:26:50;93892.35;;;4.98;78.89
50696;BME280;36665;51.786;21.594;2023-02-13T13:35:19;93904.13;;;5.01;78.94
50696;BME280;36665;51.786;21.594;2023-02-13T13:52:34;93902.38;;;4.99;78.91
50696;BME280;36665;51.786;21.594;2023-02-13T14:01:21;93903.37;;;5.00;78.76
50696;BME280;36665;51.786;21.594;2023-02-13T14:09:45;93907.61;;;5.02;78.88
50696;BME280;36665;51.786;21.594;2023-02-13T14:26:39;93896.77;;;4.99;78.90
50696;BME280;36665;51.786;21.594;2023-02-13T14:43:41;93872.80;;;4.92;78.73
50696;BME280;36665;51.786;21.594;2023-02-13T14:52:23;93853.08;;;4.88;78.82
50696;BME280;36665;51.786;21.594;2023-02-13T15:09:31;93815.10;;;4.77;78.69
50696;BME280;36665;51.786;21.594;2023-02-13T15:18:15;93806.02;;;4.75;78.64
50696;BME280;36665;51.786;21.594;2023-02-13T15:26:41;93791.15;;;4.71;78.65
50696;BME280;36665;51.786;21.594;2023-02-13T15:35:26;93771.60;;;4.66;78.59
50696;BME280;36665;51.786;21.594;2023-02-13T15:43:54;93739.83;;;4.58;78.64
50696;BME280;36665;51.786;21.594;2023-02-13T15:52:31;93720.29;;;4.53;78.50
50696;BME280;36665;51.786;21.594;2023-02-13T16:01:00;93680.34;;;4.43;78.61
50696;BME280;36665;51.786;21.594;2023-02-13T16:09:34;93657.59;;;4.36;78.65
50696;BME280;36665;51.786;21.594;2023-02-13T16:17:58;93640.59;;;4.32;78.44
50696;BME280;36665;51.786;21.594;2023-02-13T16:26:21;93621.58;;;4.26;78.39
50696;BME280;36665;51.786;21.594;2023-02-13T16:34:44;93617.54;;;4.25;78.47
50696;BME280;36665;51.786;21.594;2023-02-13T16:43:43;93609.00;;;4.23;78.49
50696;BME280;36665;51.786;21.594;2023-02-13T16:52:18;93614.81;;;4.24;78.46
50696;BME280;36665;51.786;21.594;2023-02-13T17:00:41;93612.51;;;4.24;78.33
50696;BME280;36665;51.786;21.594;2023-02-13T17:09:05;93614.83;;;4.24;78.45
50696;BME280;36665;51.786;21.594;2023-02-13T17:17:30;93618.48;;;4.25;78.52
50696;BME280;36665;51.786;21.594;2023-02-13T17:25:53;93629.05;;;4.28;78.55
50696;BME280;36665;51.786;21.594;2023-02-13T17:34:16;93632.52;;;4.28;78.62
50696;BME280;36665;51.786;21.594;2023-02-13T17:42:42;93619.95;;;4.25;78.69
50696;BME280;36665;51.786;21.594;2023-02-13T17:51:10;93605.89;;;4.21;78.59
50696;BME280;36665;51.786;21.594;2023-02-13T17:59:34;93600.61;;;4.21;78.29
50696;BME280;36665;51.786;21.594;2023-02-13T18:07:58;93593.15;;;4.18;78.49
50696;BME280;36665;51.786;21.594;2023-02-13T18:16:23;93588.84;;;4.17;78.47
50696;BME280;36665;51.786;21.594;2023-02-13T18:24:47;93570.02;;;4.12;78.38
50696;BME280;36665;51.786;21.594;2023-02-13T18:33:10;93566.92;;;4.11;78.35
50696;BME280;36665;51.786;21.594;2023-02-13T18:41:33;93556.34;;;4.08;78.43
50696;BME280;36665;51.786;21.594;2023-02-13T18:49:56;93559.14;;;4.09;78.60
50696;BME280;36665;51.786;21.594;2023-02-13T18:58:19;93557.59;;;4.08;78.45
50696;BME280;36665;51.786;21.594;2023-02-13T19:06:43;93542.36;;;4.04;78.35
50696;BME280;36665;51.786;21.594;2023-02-13T19:15:07;93538.53;;;4.03;78.36
50696;BME280;36665;51.786;21.594;2023-02-13T19:23:32;93531.16;;;4.01;78.48
50696;BME280;36665;51.786;21.594;2023-02-13T19:31:55;93522.81;;;3.99;78.40
50696;BME280;36665;51.786;21.594;2023-02-13T19:40:18;93520.90;;;3.99;78.36
50696;BME280;36665;51.786;21.594;2023-02-13T19:48:41;93513.76;;;3.97;78.43
50696;BME280;36665;51.786;21.594;2023-02-13T19:57:04;93511.83;;;3.96;78.45
50696;BME280;36665;51.786;21.594;2023-02-13T20:05:28;93510.68;;;3.96;78.19
50696;BME280;36665;51.786;21.594;2023-02-13T20:13:53;93506.65;;;3.95;78.20
50696;BME280;36665;51.786;21.594;2023-02-13T20:22:17;93494.04;;;3.92;78.19
50696;BME280;36665;51.786;21.594;2023-02-13T20:30:42;93484.86;;;3.90;78.22
50696;BME280;36665;51.786;21.594;2023-02-13T20:39:06;93474.38;;;3.87;78.13
50696;BME280;36665;51.786;21.594;2023-02-13T20:47:30;93465.55;;;3.84;78.22
50696;BME280;36665;51.786;21.594;2023-02-13T20:55:53;93453.66;;;3.81;78.11
50696;BME280;36665;51.786;21.594;2023-02-13T21:04:16;93441.59;;;3.79;78.05
50696;BME280;36665;51.786;21.594;2023-02-13T21:12:41;93425.02;;;3.74;78.03
50696;BME280;36665;51.786;21.594;2023-02-13T21:21:05;93406.80;;;3.70;78.04
50696;BME280;36665;51.786;21.594;2023-02-13T21:29:28;93393.44;;;3.66;77.96
50696;BME280;36665;51.786;21.594;2023-02-13T21:37:51;93388.29;;;3.64;77.84
50696;BME280;36665;51.786;21.594;2023-02-13T21:54:38;93371.54;;;3.60;77.90
50696;BME280;36665;51.786;21.594;2023-02-13T22:03:01;93358.34;;;3.57;77.90
50696;BME280;36665;51.786;21.594;2023-02-13T22:11:25;93351.52;;;3.56;78.03
50696;BME280;36665;51.786;21.594;2023-02-13T22:19:48;93347.58;;;3.54;77.80
50696;BME280;36665;51.786;21.594;2023-02-13T22:28:11;93345.42;;;3.54;77.68
50696;BME280;36665;51.786;21.594;2023-02-13T22:36:35;93337.65;;;3.51;77.87
50696;BME280;36665;51.786;21.594;2023-02-13T22:45:02;93331.78;;;3.49;77.70
50696;BME280;36665;51.786;21.594;2023-02-13T22:53:25;93325.55;;;3.48;77.95
50696;BME280;36665;51.786;21.594;2023-02-13T23:01:48;93322.54;;;3.47;77.89
50696;BME280;36665;51.786;21.594;2023-02-13T23:10:11;93319.02;;;3.46;77.79
50696;BME280;36665;51.786;21.594;2023-02-13T23:18:34;93311.38;;;3.44;77.71
50696;BME280;36665;51.786;21.594;2023-02-13T23:26:58;93311.27;;;3.44;77.78
50696;BME280;36665;51.786;21.594;2023-02-13T23:35:21;93300.92;;;3.42;77.86
50696;BME280;36665;51.786;21.594;2023-02-13T23:43:44;93289.14;;;3.38;77.99
50696;BME280;36665;51.786;21.594;2023-02-13T23:52:07;93278.38;;;3.34;77.80
